sensor_id;sensor_type;location;lat;lon;timestamp;pressure;altitude;pressure_sealevel;temperature;humidity
10064;BME280;5071;52.360;13.134;2022-11-18T00:00:30;99883.59;;;1.95;97.62
10064;BME280;5071;52.360;13.134;2022-11-18T00:05:33;99873.09;;;1.90;97.58
10064;BME280;5071;52.360;13.134;2022-11-18T00:10:37;99872.22;;;1.88;97.35
10064;BME280;5071;52.360;13.134;2022-11-18T00:15:38;99872.16;;;1.82;97.56
10064;BME280;5071;52.360;13.134;2022-11-18T00:20:42;99882.59;;;1.79;97.89
10064;BME280;5071;52.360;13.134;2022-11-18T00:25:44;99866.91;;;1.84;97.63
10064;BME280;5071;52.360;13.134;2022-11-18T00:30:46;99865.91;;;1.68;97.57
10064;BME280;5071;52.360;13.134;2022-11-18T00:35:53;99874.69;;;1.71;97.53
10064;BME280;5071;52.360;13.134;2022-11-18T00:40:59;99879.91;;;1.71;96.89
10064;BME280;5071;52.360;13.134;2022-11-18T00:46:02;99884.34;;;1.79;97.10
10064;BME280;5071;52.360;13.134;2022-11-18T00:51:11;99890.41;;;1.78;96.79
10064;BME280;5071;52.360;13.134;2022-11-18T00:56:14;99892.13;;;1.71;97.06
10064;BME280;5071;52.360;13.134;2022-11-18T01:01:16;99885.97;;;1.69;97.14
10064;BME280;5071;52.360;13.134;2022-11-18T01:06:20;99887.78;;;1.73;97.29
10064;BME280;5071;52.360;13.134;2022-11-18T01:11:22;99883.28;;;1.63;96.63
10064;BME280;5071;52.360;13.134;2022-11-18T01:16:26;99896.31;;;1.55;97.66
10064;BME280;5071;52.360;13.134;2022-11-18T01:21:29;99896.22;;;1.47;97.70
10064;BME280;5071;52.360;13.134;2022-11-18T01:26:32;99907.59;;;1.51;98.04
10064;BME280;5071;52.360;13.134;2022-11-18T01:31:34;99904.91;;;1.46;98.07
10064;BME280;5071;52.360;13.134;2022-11-18T01:37:00;99894.38;;;1.37;97.92
10064;BME280;5071;52.360;13.134;2022-11-18T01:42:02;99891.78;;;1.37;98.08
10064;BME280;5071;52.360;13.134;2022-11-18T01:47:04;99894.38;;;1.39;98.44
10064;BME280;5071;52.360;13.134;2022-11-18T01:52:07;99884.66;;;1.27;98.69
10064;BME280;5071;52.360;13.134;2022-11-18T01:57:14;99895.19;;;1.31;99.02
10064;BME280;5071;52.360;13.134;2022-11-18T02:02:21;99901.19;;;1.26;99.24
10064;BME280;5071;52.360;13.134;2022-11-18T02:07:24;99900.28;;;1.21;98.92
10064;BME280;5071;52.360;13.134;2022-11-18T02:12:28;99895.84;;;1.13;99.30
10064;BME280;5071;52.360;13.134;2022-11-18T02:17:39;99899.22;;;1.06;98.72
10064;BME280;5071;52.360;13.134;2022-11-18T02:23:06;99904.38;;;0.99;98.03
10064;BME280;5071;52.360;13.134;2022-11-18T02:28:37;99909.63;;;1.00;98.39
10064;BME280;5071;52.360;13.134;2022-11-18T02:33:48;99900.91;;;1.01;97.80
10064;BME280;5071;52.360;13.134;2022-11-18T02:38:56;99906.97;;;0.99;97.43
10064;BME280;5071;52.360;13.134;2022-11-18T02:44:03;99916.63;;;1.04;96.21
10064;BME280;5071;52.360;13.134;2022-11-18T02:49:17;99917.47;;;1.02;96.09
10064;BME280;5071;52.360;13.134;2022-11-18T02:54:22;99917.47;;;1.02;96.26
10064;BME280;5071;52.360;13.134;2022-11-18T02:59:27;99920.91;;;0.99;95.80
10064;BME280;5071;52.360;13.134;2022-11-18T03:04:31;99920.13;;;1.06;95.67
10064;BME280;5071;52.360;13.134;2022-11-18T03:09:35;99925.22;;;0.94;96.07
10064;BME280;5071;52.360;13.134;2022-11-18T03:14:44;99921.59;;;0.86;96.18
10064;BME280;5071;52.360;13.134;2022-11-18T03:19:58;99915.56;;;0.90;97.06
10064;BME280;5071;52.360;13.134;2022-11-18T03:25:05;99919.75;;;0.78;97.09
10064;BME280;5071;52.360;13.134;2022-11-18T03:30:12;99914.50;;;0.74;98.10
10064;BME280;5071;52.360;13.134;2022-11-18T03:35:20;99915.19;;;0.64;98.32
10064;BME280;5071;52.360;13.134;2022-11-18T03:40:26;99926.56;;;0.67;98.45
10064;BME280;5071;52.360;13.134;2022-11-18T03:45:33;99925.53;;;0.56;98.30
10064;BME280;5071;52.360;13.134;2022-11-18T03:50:41;99929.78;;;0.48;98.05
10064;BME280;5071;52.360;13.134;2022-11-18T03:55:45;99945.38;;;0.45;97.95
10064;BME280;5071;52.360;13.134;2022-11-18T04:00:52;99955.88;;;0.48;97.30
10064;BME280;5071;52.360;13.134;2022-11-18T04:06:04;99961.94;;;0.47;96.70
10064;BME280;5071;52.360;13.134;2022-11-18T04:11:13;99971.59;;;0.51;95.67
10064;BME280;5071;52.360;13.134;2022-11-18T04:16:17;99973.34;;;0.52;94.32
10064;BME280;5071;52.360;13.134;2022-11-18T04:21:21;99970.69;;;0.49;93.84
10064;BME280;5071;52.360;13.134;2022-11-18T04:26:23;99980.19;;;0.44;92.51
10064;BME280;5071;52.360;13.134;2022-11-18T04:31:25;99990.63;;;0.44;93.66
10064;BME280;5071;52.360;13.134;2022-11-18T04:36:28;99987.06;;;0.38;92.78
10064;BME280;5071;52.360;13.134;2022-11-18T04:41:31;99991.41;;;0.38;92.68
10064;BME280;5071;52.360;13.134;2022-11-18T04:46:33;99996.69;;;0.43;93.11
10064;BME280;5071;52.360;13.134;2022-11-18T04:51:37;99994.00;;;0.36;93.07
10064;BME280;5071;52.360;13.134;2022-11-18T04:56:40;100007.09;;;0.40;92.76
10064;BME280;5071;52.360;13.134;2022-11-18T05:01:51;100022.63;;;0.33;93.20
10064;BME280;5071;52.360;13.134;2022-11-18T05:06:55;100014.78;;;0.32;93.54
10064;BME280;5071;52.360;13.134;2022-11-18T05:11:57;100013.66;;;0.16;94.82
10064;BME280;5071;52.360;13.134;2022-11-18T05:17:01;100031.00;;;0.14;94.79
10064;BME280;5071;52.360;13.134;2022-11-18T05:22:06;100034.41;;;0.10;94.45
10064;BME280;5071;52.360;13.134;2022-11-18T05:27:08;100042.06;;;0.01;95.01
10064;BME280;5071;52.360;13.134;2022-11-18T05:32:11;100045.50;;;-0.01;95.78
10064;BME280;5071;52.360;13.134;2022-11-18T05:37:15;100053.47;;;0.06;95.68
10064;BME280;5071;52.360;13.134;2022-11-18T05:42:18;100058.69;;;0.06;95.97
10064;BME280;5071;52.360;13.134;2022-11-18T05:47:20;100067.25;;;-0.02;94.69
10064;BME280;5071;52.360;13.134;2022-11-18T05:52:23;100069.09;;;0.04;94.77
10064;BME280;5071;52.360;13.134;2022-11-18T05:57:26;100082.28;;;0.12;94.46
10064;BME280;5071;52.360;13.134;2022-11-18T06:02:28;100089.22;;;0.10;93.21
10064;BME280;5071;52.360;13.134;2022-11-18T06:07:34;100096.25;;;0.14;93.56
10064;BME280;5071;52.360;13.134;2022-11-18T06:12:44;100101.28;;;0.05;94.16
10064;BME280;5071;52.360;13.134;2022-11-18T06:17:50;100096.91;;;0.04;93.79
10064;BME280;5071;52.360;13.134;2022-11-18T06:22:57;100098.47;;;-0.05;94.49
10064;BME280;5071;52.360;13.134;2022-11-18T06:28:00;100112.41;;;-0.04;94.72
10064;BME280;5071;52.360;13.134;2022-11-18T06:33:02;100107.09;;;-0.09;95.57
10064;BME280;5071;52.360;13.134;2022-11-18T06:38:06;100113.97;;;-0.12;96.36
10064;BME280;5071;52.360;13.134;2022-11-18T06:43:10;100114.94;;;-0.09;96.72
10064;BME280;5071;52.360;13.134;2022-11-18T06:48:12;100125.09;;;-0.21;96.02
10064;BME280;5071;52.360;13.134;2022-11-18T06:53:16;100122.28;;;-0.30;95.13
10064;BME280;5071;52.360;13.134;2022-11-18T06:58:17;100134.53;;;-0.28;93.59
10064;BME280;5071;52.360;13.134;2022-11-18T07:03:19;100139.03;;;-0.19;93.88
10064;BME280;5071;52.360;13.134;2022-11-18T07:08:22;100146.81;;;-0.22;92.59
10064;BME280;5071;52.360;13.134;2022-11-18T07:13:24;100135.41;;;-0.27;91.10
10064;BME280;5071;52.360;13.134;2022-11-18T07:18:28;100151.31;;;-0.15;91.47
10064;BME280;5071;52.360;13.134;2022-11-18T07:23:32;100150.22;;;-0.25;91.83
10064;BME280;5071;52.360;13.134;2022-11-18T07:28:35;100146.38;;;-0.42;91.31
10064;BME280;5071;52.360;13.134;2022-11-18T07:33:38;100162.66;;;-0.52;91.53
10064;BME280;5071;52.360;13.134;2022-11-18T07:38:42;100158.19;;;-0.58;91.89
10064;BME280;5071;52.360;13.134;2022-11-18T07:43:45;100166.00;;;-0.58;92.34
10064;BME280;5071;52.360;13.134;2022-11-18T07:48:48;100178.59;;;-0.76;92.65
10064;BME280;5071;52.360;13.134;2022-11-18T07:53:52;100186.19;;;-0.86;93.72
10064;BME280;5071;52.360;13.134;2022-11-18T07:58:55;100187.19;;;-0.81;94.76
10064;BME280;5071;52.360;13.134;2022-11-18T08:04:03;100190.53;;;-0.86;95.03
10064;BME280;5071;52.360;13.134;2022-11-18T08:09:07;100201.81;;;-0.86;96.00
10064;BME280;5071;52.360;13.134;2022-11-18T08:14:09;100191.22;;;-0.93;100.00
10064;BME280;5071;52.360;13.134;2022-11-18T08:19:11;100196.75;;;-0.80;98.28
10064;BME280;5071;52.360;13.134;2022-11-18T08:24:15;100203.88;;;-0.72;96.65
10064;BME280;5071;52.360;13.134;2022-11-18T08:29:17;100207.31;;;-0.73;95.42
10064;BME280;5071;52.360;13.134;2022-11-18T08:34:25;100213.06;;;-0.52;94.53
10064;BME280;5071;52.360;13.134;2022-11-18T08:39:30;100209.13;;;-0.34;93.79
10064;BME280;5071;52.360;13.134;2022-11-18T08:44:32;100230.28;;;-0.22;89.64
10064;BME280;5071;52.360;13.134;2022-11-18T08:49:34;100235.53;;;-0.21;85.64
10064;BME280;5071;52.360;13.134;2022-11-18T08:54:37;100241.47;;;0.12;85.05
10064;BME280;5071;52.360;13.134;2022-11-18T08:59:39;100247.19;;;-0.05;83.38
10064;BME280;5071;52.360;13.134;2022-11-18T09:04:41;100248.13;;;-0.01;83.42
10064;BME280;5071;52.360;13.134;2022-11-18T09:09:45;100251.44;;;-0.08;81.78
10064;BME280;5071;52.360;13.134;2022-11-18T09:14:47;100256.69;;;-0.07;82.39
10064;BME280;5071;52.360;13.134;2022-11-18T09:20:09;100272.41;;;-0.05;81.09
10064;BME280;5071;52.360;13.134;2022-11-18T09:25:13;100274.97;;;-0.07;81.20
10064;BME280;5071;52.360;13.134;2022-11-18T09:30:15;100300.56;;;0.10;82.47
10064;BME280;5071;52.360;13.134;2022-11-18T09:35:17;100308.00;;;-0.06;80.93
10064;BME280;5071;52.360;13.134;2022-11-18T09:40:21;100308.56;;;-0.19;80.73
10064;BME280;5071;52.360;13.134;2022-11-18T09:45:26;100317.84;;;-0.30;80.92
10064;BME280;5071;52.360;13.134;2022-11-18T09:50:28;100322.56;;;-0.15;81.33
10064;BME280;5071;52.360;13.134;2022-11-18T09:55:55;100319.63;;;-0.29;80.19
10064;BME280;5071;52.360;13.134;2022-11-18T10:00:57;100336.97;;;-0.31;79.29
10064;BME280;5071;52.360;13.134;2022-11-18T10:06:04;100329.66;;;-0.46;78.60
10064;BME280;5071;52.360;13.134;2022-11-18T10:11:16;100336.59;;;-0.45;79.93
10064;BME280;5071;52.360;13.134;2022-11-18T10:16:40;100340.25;;;-0.38;78.85
10064;BME280;5071;52.360;13.134;2022-11-18T10:21:51;100348.22;;;-0.32;79.45
10064;BME280;5071;52.360;13.134;2022-11-18T10:26:58;100344.59;;;-0.39;78.69
10064;BME280;5071;52.360;13.134;2022-11-18T10:32:02;100359.75;;;-0.24;79.06
10064;BME280;5071;52.360;13.134;2022-11-18T10:37:06;100367.81;;;-0.15;80.19
10064;BME280;5071;52.360;13.134;2022-11-18T10:42:19;100365.53;;;-0.36;79.58
10064;BME280;5071;52.360;13.134;2022-11-18T10:47:25;100365.53;;;-0.36;80.36
10064;BME280;5071;52.360;13.134;2022-11-18T10:52:29;100366.34;;;-0.38;79.09
10064;BME280;5071;52.360;13.134;2022-11-18T10:57:35;100373.25;;;-0.41;80.53
10064;BME280;5071;52.360;13.134;2022-11-18T11:02:39;100395.13;;;-0.35;80.00
10064;BME280;5071;52.360;13.134;2022-11-18T11:07:42;100391.34;;;-0.47;79.90
10064;BME280;5071;52.360;13.134;2022-11-18T11:12:48;100388.63;;;-0.50;79.19
10064;BME280;5071;52.360;13.134;2022-11-18T11:17:57;100392.16;;;-0.48;78.77
10064;BME280;5071;52.360;13.134;2022-11-18T11:23:00;100401.72;;;-0.48;78.98
10064;BME280;5071;52.360;13.134;2022-11-18T11:28:06;100404.44;;;-0.44;79.75
10064;BME280;5071;52.360;13.134;2022-11-18T11:33:28;100405.31;;;-0.45;79.79
10064;BME280;5071;52.360;13.134;2022-11-18T11:38:38;100409.44;;;-0.51;78.68
10064;BME280;5071;52.360;13.134;2022-11-18T11:43:57;100417.16;;;-0.56;78.21
10064;BME280;5071;52.360;13.134;2022-11-18T11:49:15;100420.22;;;-0.39;79.54
10064;BME280;5071;52.360;13.134;2022-11-18T11:54:27;100415.84;;;-0.40;80.34
10064;BME280;5071;52.360;13.134;2022-11-18T11:59:43;100415.53;;;-0.52;79.08
10064;BME280;5071;52.360;13.134;2022-11-18T12:04:49;100421.50;;;-0.55;80.05
10064;BME280;5071;52.360;13.134;2022-11-18T12:10:04;100421.91;;;-0.40;79.60
10064;BME280;5071;52.360;13.134;2022-11-18T12:15:40;100427.78;;;-0.48;78.74
10064;BME280;5071;52.360;13.134;2022-11-18T12:20:45;100434.84;;;-0.44;79.04
10064;BME280;5071;52.360;13.134;2022-11-18T12:26:07;100437.50;;;-0.43;78.91
10064;BME280;5071;52.360;13.134;2022-11-18T12:31:32;100440.44;;;-0.30;78.92
10064;BME280;5071;52.360;13.134;2022-11-18T12:36:37;100448.34;;;-0.27;78.71
10064;BME280;5071;52.360;13.134;2022-11-18T12:41:58;100455.34;;;-0.26;79.54
10064;BME280;5071;52.360;13.134;2022-11-18T12:47:02;100449.34;;;-0.22;78.66
10064;BME280;5071;52.360;13.134;2022-11-18T12:57:45;100459.13;;;-0.15;76.71
10064;BME280;5071;52.360;13.134;2022-11-18T13:02:52;100453.81;;;-0.18;77.12
10064;BME280;5071;52.360;13.134;2022-11-18T13:07:57;100468.78;;;-0.11;77.76
10064;BME280;5071;52.360;13.134;2022-11-18T13:13:01;100471.19;;;-0.17;78.13
10064;BME280;5071;52.360;13.134;2022-11-18T13:18:12;100476.34;;;-0.20;77.60
10064;BME280;5071;52.360;13.134;2022-11-18T13:23:26;100485.19;;;-0.15;77.51
10064;BME280;5071;52.360;13.134;2022-11-18T13:28:34;100483.56;;;-0.10;76.68
10064;BME280;5071;52.360;13.134;2022-11-18T13:33:40;100488.47;;;-0.22;76.05
10064;BME280;5071;52.360;13.134;2022-11-18T13:38:53;100498.00;;;-0.23;76.88
10064;BME280;5071;52.360;13.134;2022-11-18T13:44:09;100486.63;;;-0.26;76.27
10064;BME280;5071;52.360;13.134;2022-11-18T13:49:15;100494.88;;;-0.43;75.55
10064;BME280;5071;52.360;13.134;2022-11-18T13:54:23;100494.47;;;-0.56;76.04
10064;BME280;5071;52.360;13.134;2022-11-18T13:59:26;100495.69;;;-0.74;75.35
10064;BME280;5071;52.360;13.134;2022-11-18T14:04:31;100510.94;;;-0.88;76.82
10064;BME280;5071;52.360;13.134;2022-11-18T14:09:33;100508.13;;;-0.94;75.92
10064;BME280;5071;52.360;13.134;2022-11-18T14:14:36;100514.50;;;-1.13;75.88
10064;BME280;5071;52.360;13.134;2022-11-18T14:19:41;100511.94;;;-1.11;75.30
10064;BME280;5071;52.360;13.134;2022-11-18T14:24:53;100533.66;;;-1.11;75.03
10064;BME280;5071;52.360;13.134;2022-11-18T14:29:55;100527.09;;;-1.27;76.09
10064;BME280;5071;52.360;13.134;2022-11-18T14:34:59;100540.00;;;-1.30;75.67
10064;BME280;5071;52.360;13.134;2022-11-18T14:40:01;100547.63;;;-1.36;76.80
10064;BME280;5071;52.360;13.134;2022-11-18T14:45:04;100548.41;;;-1.39;76.97
10064;BME280;5071;52.360;13.134;2022-11-18T14:50:11;100551.28;;;-1.57;77.24
10064;BME280;5071;52.360;13.134;2022-11-18T14:55:13;100566.91;;;-1.57;76.52
10064;BME280;5071;52.360;13.134;2022-11-18T15:00:16;100566.06;;;-1.55;76.91
10064;BME280;5071;52.360;13.134;2022-11-18T15:05:20;100565.44;;;-1.74;76.93
10064;BME280;5071;52.360;13.134;2022-11-18T15:10:22;100573.63;;;-1.63;77.09
10064;BME280;5071;52.360;13.134;2022-11-18T15:15:25;100577.94;;;-1.88;78.44
10064;BME280;5071;52.360;13.134;2022-11-18T15:20:29;100580.47;;;-2.15;80.67
10064;BME280;5071;52.360;13.134;2022-11-18T15:25:31;100588.47;;;-2.33;82.09
10064;BME280;5071;52.360;13.134;2022-11-18T15:30:33;100601.47;;;-2.56;83.14
10064;BME280;5071;52.360;13.134;2022-11-18T15:35:36;100613.34;;;-2.85;83.78
10064;BME280;5071;52.360;13.134;2022-11-18T15:40:38;100618.56;;;-2.85;84.63
10064;BME280;5071;52.360;13.134;2022-11-18T15:45:40;100628.88;;;-2.86;85.78
10064;BME280;5071;52.360;13.134;2022-11-18T15:50:43;100634.13;;;-2.85;86.02
10064;BME280;5071;52.360;13.134;2022-11-18T15:55:46;100631.22;;;-2.92;86.09
10064;BME280;5071;52.360;13.134;2022-11-18T16:00:48;100638.34;;;-3.09;85.94
10064;BME280;5071;52.360;13.134;2022-11-18T16:05:52;100626.66;;;-3.19;87.08
10064;BME280;5071;52.360;13.134;2022-11-18T16:10:54;100637.44;;;-3.10;86.88
10064;BME280;5071;52.360;13.134;2022-11-18T16:15:56;100645.03;;;-3.15;86.94
10064;BME280;5071;52.360;13.134;2022-11-18T16:20:59;100655.75;;;-3.28;86.58
10064;BME280;5071;52.360;13.134;2022-11-18T16:26:01;100663.25;;;-3.34;87.66
10064;BME280;5071;52.360;13.134;2022-11-18T16:31:03;100659.44;;;-3.42;87.77
10064;BME280;5071;52.360;13.134;2022-11-18T16:36:07;100673.94;;;-3.47;87.68
10064;BME280;5071;52.360;13.134;2022-11-18T16:41:09;100676.53;;;-3.47;88.48
10064;BME280;5071;52.360;13.134;2022-11-18T16:46:14;100675.94;;;-3.61;88.25
10064;BME280;5071;52.360;13.134;2022-11-18T16:51:19;100691.53;;;-3.81;88.78
10064;BME280;5071;52.360;13.134;2022-11-18T16:56:25;100690.34;;;-3.87;88.64
10064;BME280;5071;52.360;13.134;2022-11-18T17:01:28;100694.44;;;-3.93;89.93
10064;BME280;5071;52.360;13.134;2022-11-18T17:06:32;100696.22;;;-3.92;90.21
10064;BME280;5071;52.360;13.134;2022-11-18T17:11:34;100707.16;;;-4.17;89.71
10064;BME280;5071;52.360;13.134;2022-11-18T17:16:37;100713.78;;;-4.41;89.96
10064;BME280;5071;52.360;13.134;2022-11-18T17:21:40;100722.47;;;-4.41;91.80
10064;BME280;5071;52.360;13.134;2022-11-18T17:26:44;100724.91;;;-4.44;91.85
10064;BME280;5071;52.360;13.134;2022-11-18T17:31:46;100716.69;;;-4.53;92.09
10064;BME280;5071;52.360;13.134;2022-11-18T17:36:50;100727.94;;;-4.71;92.04
10064;BME280;5071;52.360;13.134;2022-11-18T17:41:56;100729.88;;;-4.66;92.26
10064;BME280;5071;52.360;13.134;2022-11-18T17:46:58;100734.28;;;-4.82;92.45
10064;BME280;5071;52.360;13.134;2022-11-18T17:52:02;100731.75;;;-4.98;92.59
10064;BME280;5071;52.360;13.134;2022-11-18T17:57:04;100742.78;;;-5.19;92.12
10064;BME280;5071;52.360;13.134;2022-11-18T18:02:08;100742.38;;;-5.10;94.00
10064;BME280;5071;52.360;13.134;2022-11-18T18:07:12;100755.72;;;-4.84;94.38
10064;BME280;5071;52.360;13.134;2022-11-18T18:12:14;100747.91;;;-4.86;94.04
10064;BME280;5071;52.360;13.134;2022-11-18T18:17:17;100753.25;;;-4.99;93.99
10064;BME280;5071;52.360;13.134;2022-11-18T18:22:20;100763.03;;;-5.28;93.55
10064;BME280;5071;52.360;13.134;2022-11-18T18:27:22;100774.84;;;-5.50;93.67
10064;BME280;5071;52.360;13.134;2022-11-18T18:32:24;100776.13;;;-5.41;94.95
10064;BME280;5071;52.360;13.134;2022-11-18T18:37:27;100766.75;;;-5.39;95.50
10064;BME280;5071;52.360;13.134;2022-11-18T18:42:29;100785.81;;;-5.54;94.78
10064;BME280;5071;52.360;13.134;2022-11-18T18:47:32;100777.06;;;-5.06;96.21
10064;BME280;5071;52.360;13.134;2022-11-18T18:52:36;100778.13;;;-4.33;95.03
10064;BME280;5071;52.360;13.134;2022-11-18T18:57:38;100789.41;;;-3.95;93.30
10064;BME280;5071;52.360;13.134;2022-11-18T19:02:40;100797.84;;;-3.81;90.50
10064;BME280;5071;52.360;13.134;2022-11-18T19:07:43;100796.94;;;-3.81;89.27
10064;BME280;5071;52.360;13.134;2022-11-18T19:12:45;100797.94;;;-3.97;88.72
10064;BME280;5071;52.360;13.134;2022-11-18T19:17:47;100797.56;;;-4.05;88.30
10064;BME280;5071;52.360;13.134;2022-11-18T19:22:51;100795.63;;;-3.91;87.88
10064;BME280;5071;52.360;13.134;2022-11-18T19:27:53;100797.50;;;-3.88;87.17
10064;BME280;5071;52.360;13.134;2022-11-18T19:32:55;100806.50;;;-3.98;86.69
10064;BME280;5071;52.360;13.134;2022-11-18T19:37:58;100817.00;;;-4.15;86.17
10064;BME280;5071;52.360;13.134;2022-11-18T19:43:00;100821.66;;;-4.25;87.48
10064;BME280;5071;52.360;13.134;2022-11-18T19:48:02;100823.41;;;-4.24;87.20
10064;BME280;5071;52.360;13.134;2022-11-18T19:53:06;100836.91;;;-4.32;87.41
10064;BME280;5071;52.360;13.134;2022-11-18T19:58:09;100826.81;;;-4.43;88.02
10064;BME280;5071;52.360;13.134;2022-11-18T20:03:11;100843.97;;;-4.63;88.05
10064;BME280;5071;52.360;13.134;2022-11-18T20:08:15;100840.91;;;-4.73;87.83
10064;BME280;5071;52.360;13.134;2022-11-18T20:13:17;100844.84;;;-4.63;88.07
10064;BME280;5071;52.360;13.134;2022-11-18T20:18:19;100850.91;;;-4.62;87.98
10064;BME280;5071;52.360;13.134;2022-11-18T20:23:23;100844.72;;;-4.48;87.77
10064;BME280;5071;52.360;13.134;2022-11-18T20:28:25;100852.59;;;-4.46;87.81
10064;BME280;5071;52.360;13.134;2022-11-18T20:33:27;100855.47;;;-4.40;87.27
10064;BME280;5071;52.360;13.134;2022-11-18T20:38:31;100859.09;;;-4.37;88.41
10064;BME280;5071;52.360;13.134;2022-11-18T20:43:35;100861.19;;;-4.30;88.73
10064;BME280;5071;52.360;13.134;2022-11-18T20:48:38;100876.38;;;-4.19;88.53
10064;BME280;5071;52.360;13.134;2022-11-18T20:53:42;100873.59;;;-4.22;88.48
10064;BME280;5071;52.360;13.134;2022-11-18T20:58:44;100880.13;;;-4.48;88.22
10064;BME280;5071;52.360;13.134;2022-11-18T21:03:48;100885.06;;;-4.70;88.19
10064;BME280;5071;52.360;13.134;2022-11-18T21:08:55;100896.75;;;-4.78;88.61
10064;BME280;5071;52.360;13.134;2022-11-18T21:13:57;100903.94;;;-4.89;89.16
10064;BME280;5071;52.360;13.134;2022-11-18T21:18:59;100903.53;;;-4.96;88.98
10064;BME280;5071;52.360;13.134;2022-11-18T21:24:03;100899.75;;;-5.03;88.93
10064;BME280;5071;52.360;13.134;2022-11-18T21:29:07;100903.16;;;-5.04;89.67
10064;BME280;5071;52.360;13.134;2022-11-18T21:34:10;100914.84;;;-5.11;89.13
10064;BME280;5071;52.360;13.134;2022-11-18T21:39:13;100914.53;;;-5.17;89.47
10064;BME280;5071;52.360;13.134;2022-11-18T21:44:16;100925.34;;;-5.24;89.19
10064;BME280;5071;52.360;13.134;2022-11-18T21:49:18;100924.56;;;-5.23;89.09
10064;BME280;5071;52.360;13.134;2022-11-18T21:54:22;100918.25;;;-5.28;89.50
10064;BME280;5071;52.360;13.134;2022-11-18T21:59:24;100921.56;;;-5.31;89.39
10064;BME280;5071;52.360;13.134;2022-11-18T22:04:26;100922.91;;;-5.37;89.68
10064;BME280;5071;52.360;13.134;2022-11-18T22:09:30;100927.50;;;-5.48;88.96
10064;BME280;5071;52.360;13.134;2022-11-18T22:14:37;100921.91;;;-5.56;89.44
10064;BME280;5071;52.360;13.134;2022-11-18T22:19:39;100921.19;;;-5.53;90.31
10064;BME280;5071;52.360;13.134;2022-11-18T22:24:42;100926.91;;;-5.59;90.45
10064;BME280;5071;52.360;13.134;2022-11-18T22:29:44;100916.22;;;-5.65;90.02
10064;BME280;5071;52.360;13.134;2022-11-18T22:34:46;100925.53;;;-5.69;90.16
10064;BME280;5071;52.360;13.134;2022-11-18T22:39:54;100926.53;;;-5.81;89.42
10064;BME280;5071;52.360;13.134;2022-11-18T22:44:55;100937.41;;;-5.87;90.47
10064;BME280;5071;52.360;13.134;2022-11-18T22:50:00;100952.06;;;-6.02;90.05
10064;BME280;5071;52.360;13.134;2022-11-18T22:55:04;100959.56;;;-6.07;90.46
10064;BME280;5071;52.360;13.134;2022-11-18T23:00:07;100958.03;;;-6.18;90.89
10064;BME280;5071;52.360;13.134;2022-11-18T23:05:10;100964.47;;;-6.12;91.00
10064;BME280;5071;52.360;13.134;2022-11-18T23:10:13;100966.03;;;-6.14;91.07
10064;BME280;5071;52.360;13.134;2022-11-18T23:15:15;100964.63;;;-6.23;91.56
10064;BME280;5071;52.360;13.134;2022-11-18T23:20:17;100979.34;;;-6.22;91.42
10064;BME280;5071;52.360;13.134;2022-11-18T23:25:21;100982.53;;;-6.27;91.36
10064;BME280;5071;52.360;13.134;2022-11-18T23:30:23;100979.75;;;-6.30;91.14
10064;BME280;5071;52.360;13.134;2022-11-18T23:35:25;100980.81;;;-6.41;91.00
10064;BME280;5071;52.360;13.134;2022-11-18T23:40:28;100990.88;;;-6.46;91.04
10064;BME280;5071;52.360;13.134;2022-11-18T23:45:31;100979.47;;;-6.49;91.48
10064;BME280;5071;52.360;13.134;2022-11-18T23:50:33;100988.00;;;-6.50;91.08
10064;BME280;5071;52.360;13.134;2022-11-18T23:55:41;100984.03;;;-6.45;91.38
